sensor_id;sensor_type;location;lat;lon;timestamp;P1;durP1;ratioP1;P2;durP2;ratioP2
7306;SDS011;3694;48.732;9.248;2023-05-02T00:01:39;8.77;;;7.87;;
7306;SDS011;3694;48.732;9.248;2023-05-02T00:04:05;9.50;;;8.60;;
7306;SDS011;3694;48.732;9.248;2023-05-02T00:06:31;9.77;;;8.77;;
7306;SDS011;3694;48.732;9.248;2023-05-02T00:08:56;9.87;;;8.87;;
7306;SDS011;3694;48.732;9.248;2023-05-02T00:11:22;9.70;;;8.70;;
7306;SDS011;3694;48.732;9.248;2023-05-02T00:13:48;9.63;;;8.63;;
7306;SDS011;3694;48.732;9.248;2023-05-02T00:16:14;10.77;;;9.63;;
7306;SDS011;3694;48.732;9.248;2023-05-02T00:18:39;11.23;;;9.83;;
7306;SDS011;3694;48.732;9.248;2023-05-02T00:21:05;12.03;;;9.87;;
7306;SDS011;3694;48.732;9.248;2023-05-02T00:23:31;12.13;;;10.07;;
7306;SDS011;3694;48.732;9.248;2023-05-02T00:25:57;10.33;;;8.77;;
7306;SDS011;3694;48.732;9.248;2023-05-02T00:28:22;12.97;;;9.80;;
7306;SDS011;3694;48.732;9.248;2023-05-02T00:30:48;10.90;;;8.67;;
7306;SDS011;3694;48.732;9.248;2023-05-02T00:33:13;10.10;;;9.10;;
7306;SDS011;3694;48.732;9.248;2023-05-02T00:35:39;11.37;;;8.97;;
7306;SDS011;3694;48.732;9.248;2023-05-02T00:38:05;10.60;;;8.73;;
7306;SDS011;3694;48.732;9.248;2023-05-02T00:40:31;11.17;;;9.40;;
7306;SDS011;3694;48.732;9.248;2023-05-02T00:43:07;10.27;;;9.17;;
7306;SDS011;3694;48.732;9.248;2023-05-02T00:45:33;10.53;;;9.43;;
7306;SDS011;3694;48.732;9.248;2023-05-02T00:47:58;10.27;;;9.17;;
7306;SDS011;3694;48.732;9.248;2023-05-02T00:50:25;11.43;;;9.40;;
7306;SDS011;3694;48.732;9.248;2023-05-02T00:52:54;10.93;;;9.07;;
7306;SDS011;3694;48.732;9.248;2023-05-02T00:55:19;11.00;;;9.00;;
7306;SDS011;3694;48.732;9.248;2023-05-02T00:57:45;9.90;;;8.63;;
7306;SDS011;3694;48.732;9.248;2023-05-02T01:00:11;10.60;;;9.13;;
7306;SDS011;3694;48.732;9.248;2023-05-02T01:02:42;11.03;;;9.73;;
7306;SDS011;3694;48.732;9.248;2023-05-02T01:05:16;11.73;;;9.30;;
7306;SDS011;3694;48.732;9.248;2023-05-02T01:07:59;11.80;;;10.60;;
7306;SDS011;3694;48.732;9.248;2023-05-02T01:10:36;11.47;;;10.27;;
7306;SDS011;3694;48.732;9.248;2023-05-02T01:13:19;12.37;;;10.33;;
7306;SDS011;3694;48.732;9.248;2023-05-02T01:15:47;11.27;;;10.07;;
7306;SDS011;3694;48.732;9.248;2023-05-02T01:18:15;12.50;;;10.77;;
7306;SDS011;3694;48.732;9.248;2023-05-02T01:20:45;13.27;;;10.60;;
7306;SDS011;3694;48.732;9.248;2023-05-02T01:23:24;13.20;;;10.40;;
7306;SDS011;3694;48.732;9.248;2023-05-02T01:26:14;11.60;;;10.40;;
7306;SDS011;3694;48.732;9.248;2023-05-02T01:31:24;12.23;;;10.30;;
7306;SDS011;3694;48.732;9.248;2023-05-02T01:33:53;10.73;;;9.63;;
7306;SDS011;3694;48.732;9.248;2023-05-02T01:36:21;13.07;;;9.70;;
7306;SDS011;3694;48.732;9.248;2023-05-02T01:38:49;12.00;;;10.53;;
7306;SDS011;3694;48.732;9.248;2023-05-02T01:41:15;13.80;;;11.27;;
7306;SDS011;3694;48.732;9.248;2023-05-02T01:43:41;13.87;;;11.00;;
7306;SDS011;3694;48.732;9.248;2023-05-02T01:46:08;13.33;;;11.93;;
7306;SDS011;3694;48.732;9.248;2023-05-02T01:48:35;11.33;;;10.13;;
7306;SDS011;3694;48.732;9.248;2023-05-02T01:51:00;14.63;;;11.40;;
7306;SDS011;3694;48.732;9.248;2023-05-02T01:53:28;12.80;;;10.90;;
7306;SDS011;3694;48.732;9.248;2023-05-02T01:55:57;12.17;;;10.87;;
7306;SDS011;3694;48.732;9.248;2023-05-02T01:58:24;12.73;;;10.57;;
7306;SDS011;3694;48.732;9.248;2023-05-02T02:00:53;15.53;;;11.57;;
7306;SDS011;3694;48.732;9.248;2023-05-02T02:03:21;13.10;;;11.23;;
7306;SDS011;3694;48.732;9.248;2023-05-02T02:05:48;14.37;;;11.67;;
7306;SDS011;3694;48.732;9.248;2023-05-02T02:08:15;15.07;;;12.47;;
7306;SDS011;3694;48.732;9.248;2023-05-02T02:10:45;15.00;;;11.23;;
7306;SDS011;3694;48.732;9.248;2023-05-02T02:13:17;14.23;;;11.53;;
7306;SDS011;3694;48.732;9.248;2023-05-02T02:15:50;14.53;;;10.90;;
7306;SDS011;3694;48.732;9.248;2023-05-02T02:18:21;12.57;;;10.40;;
7306;SDS011;3694;48.732;9.248;2023-05-02T02:20:50;12.90;;;11.50;;
7306;SDS011;3694;48.732;9.248;2023-05-02T02:23:17;11.63;;;10.10;;
7306;SDS011;3694;48.732;9.248;2023-05-02T02:25:45;12.13;;;10.83;;
7306;SDS011;3694;48.732;9.248;2023-05-02T02:28:12;13.80;;;10.77;;
7306;SDS011;3694;48.732;9.248;2023-05-02T02:30:38;14.53;;;11.40;;
7306;SDS011;3694;48.732;9.248;2023-05-02T02:33:03;13.40;;;10.80;;
7306;SDS011;3694;48.732;9.248;2023-05-02T02:35:30;16.97;;;10.80;;
7306;SDS011;3694;48.732;9.248;2023-05-02T02:38:03;11.87;;;10.33;;
7306;SDS011;3694;48.732;9.248;2023-05-02T02:40:36;12.43;;;10.23;;
7306;SDS011;3694;48.732;9.248;2023-05-02T02:43:11;12.90;;;10.70;;
7306;SDS011;3694;48.732;9.248;2023-05-02T02:46:11;12.60;;;10.83;;
7306;SDS011;3694;48.732;9.248;2023-05-02T02:51:37;13.90;;;10.87;;
7306;SDS011;3694;48.732;9.248;2023-05-02T02:54:15;15.03;;;12.47;;
7306;SDS011;3694;48.732;9.248;2023-05-02T02:56:48;14.80;;;12.27;;
7306;SDS011;3694;48.732;9.248;2023-05-02T02:59:36;13.57;;;11.47;;
7306;SDS011;3694;48.732;9.248;2023-05-02T03:02:06;16.13;;;11.80;;
7306;SDS011;3694;48.732;9.248;2023-05-02T03:04:34;13.57;;;11.23;;
7306;SDS011;3694;48.732;9.248;2023-05-02T03:07:03;14.80;;;12.27;;
7306;SDS011;3694;48.732;9.248;2023-05-02T03:09:41;14.07;;;10.70;;
7306;SDS011;3694;48.732;9.248;2023-05-02T03:12:07;26.47;;;10.90;;
7306;SDS011;3694;48.732;9.248;2023-05-02T03:14:33;13.60;;;11.23;;
7306;SDS011;3694;48.732;9.248;2023-05-02T03:16:59;14.83;;;12.30;;
7306;SDS011;3694;48.732;9.248;2023-05-02T03:19:24;15.67;;;12.70;;
7306;SDS011;3694;48.732;9.248;2023-05-02T03:21:50;14.67;;;12.63;;
7306;SDS011;3694;48.732;9.248;2023-05-02T03:24:15;14.63;;;12.50;;
7306;SDS011;3694;48.732;9.248;2023-05-02T03:26:41;17.67;;;13.07;;
7306;SDS011;3694;48.732;9.248;2023-05-02T03:29:06;14.53;;;12.77;;
7306;SDS011;3694;48.732;9.248;2023-05-02T03:31:32;15.60;;;12.90;;
7306;SDS011;3694;48.732;9.248;2023-05-02T03:33:57;15.07;;;11.70;;
7306;SDS011;3694;48.732;9.248;2023-05-02T03:36:23;15.93;;;12.27;;
7306;SDS011;3694;48.732;9.248;2023-05-02T03:38:48;16.90;;;12.50;;
7306;SDS011;3694;48.732;9.248;2023-05-02T03:41:14;14.90;;;12.17;;
7306;SDS011;3694;48.732;9.248;2023-05-02T03:43:40;15.37;;;12.00;;
7306;SDS011;3694;48.732;9.248;2023-05-02T03:46:06;15.60;;;11.80;;
7306;SDS011;3694;48.732;9.248;2023-05-02T03:48:33;13.47;;;11.77;;
7306;SDS011;3694;48.732;9.248;2023-05-02T03:51:00;13.87;;;11.27;;
7306;SDS011;3694;48.732;9.248;2023-05-02T03:53:26;13.47;;;11.53;;
7306;SDS011;3694;48.732;9.248;2023-05-02T03:55:52;15.13;;;12.23;;
7306;SDS011;3694;48.732;9.248;2023-05-02T03:58:18;15.83;;;12.83;;
7306;SDS011;3694;48.732;9.248;2023-05-02T04:00:43;14.77;;;12.73;;
7306;SDS011;3694;48.732;9.248;2023-05-02T04:03:09;15.53;;;13.23;;
7306;SDS011;3694;48.732;9.248;2023-05-02T04:05:35;15.47;;;12.57;;
7306;SDS011;3694;48.732;9.248;2023-05-02T04:08:00;14.23;;;12.63;;
7306;SDS011;3694;48.732;9.248;2023-05-02T04:10:26;20.17;;;12.83;;
7306;SDS011;3694;48.732;9.248;2023-05-02T04:12:52;14.07;;;12.60;;
7306;SDS011;3694;48.732;9.248;2023-05-02T04:15:17;15.67;;;12.93;;
7306;SDS011;3694;48.732;9.248;2023-05-02T04:17:43;14.97;;;12.70;;
7306;SDS011;3694;48.732;9.248;2023-05-02T04:20:09;14.70;;;13.00;;
7306;SDS011;3694;48.732;9.248;2023-05-02T04:22:35;14.90;;;12.70;;
7306;SDS011;3694;48.732;9.248;2023-05-02T04:25:00;16.17;;;12.63;;
7306;SDS011;3694;48.732;9.248;2023-05-02T04:27:26;14.43;;;12.47;;
7306;SDS011;3694;48.732;9.248;2023-05-02T04:29:52;14.53;;;12.43;;
7306;SDS011;3694;48.732;9.248;2023-05-02T04:32:18;14.47;;;12.23;;
7306;SDS011;3694;48.732;9.248;2023-05-02T04:34:44;14.83;;;12.47;;
7306;SDS011;3694;48.732;9.248;2023-05-02T04:37:09;15.83;;;13.87;;
7306;SDS011;3694;48.732;9.248;2023-05-02T04:39:35;16.03;;;12.77;;
7306;SDS011;3694;48.732;9.248;2023-05-02T04:42:00;16.53;;;14.50;;
7306;SDS011;3694;48.732;9.248;2023-05-02T04:44:26;18.67;;;14.13;;
7306;SDS011;3694;48.732;9.248;2023-05-02T04:46:52;18.37;;;14.80;;
7306;SDS011;3694;48.732;9.248;2023-05-02T04:49:17;17.90;;;14.30;;
7306;SDS011;3694;48.732;9.248;2023-05-02T04:51:43;17.20;;;14.37;;
7306;SDS011;3694;48.732;9.248;2023-05-02T04:54:09;17.43;;;14.97;;
7306;SDS011;3694;48.732;9.248;2023-05-02T04:56:35;18.53;;;15.60;;
7306;SDS011;3694;48.732;9.248;2023-05-02T04:59:00;15.97;;;14.03;;
7306;SDS011;3694;48.732;9.248;2023-05-02T05:01:26;16.47;;;13.70;;
7306;SDS011;3694;48.732;9.248;2023-05-02T05:03:54;15.60;;;13.40;;
7306;SDS011;3694;48.732;9.248;2023-05-02T05:06:20;15.20;;;13.63;;
7306;SDS011;3694;48.732;9.248;2023-05-02T05:08:46;15.70;;;12.93;;
7306;SDS011;3694;48.732;9.248;2023-05-02T05:11:12;14.40;;;13.00;;
7306;SDS011;3694;48.732;9.248;2023-05-02T05:13:39;15.47;;;12.67;;
7306;SDS011;3694;48.732;9.248;2023-05-02T05:16:06;14.07;;;12.43;;
7306;SDS011;3694;48.732;9.248;2023-05-02T05:18:31;13.97;;;12.30;;
7306;SDS011;3694;48.732;9.248;2023-05-02T05:21:04;13.40;;;12.10;;
7306;SDS011;3694;48.732;9.248;2023-05-02T05:23:36;13.80;;;12.23;;
7306;SDS011;3694;48.732;9.248;2023-05-02T05:26:13;15.30;;;13.80;;
7306;SDS011;3694;48.732;9.248;2023-05-02T05:28:40;14.13;;;12.83;;
7306;SDS011;3694;48.732;9.248;2023-05-02T05:31:07;13.70;;;12.30;;
7306;SDS011;3694;48.732;9.248;2023-05-02T05:33:34;13.47;;;12.13;;
7306;SDS011;3694;48.732;9.248;2023-05-02T05:36:07;13.00;;;11.67;;
7306;SDS011;3694;48.732;9.248;2023-05-02T05:38:34;14.03;;;12.53;;
7306;SDS011;3694;48.732;9.248;2023-05-02T05:41:02;13.67;;;12.20;;
7306;SDS011;3694;48.732;9.248;2023-05-02T05:43:35;13.63;;;12.30;;
7306;SDS011;3694;48.732;9.248;2023-05-02T05:46:01;14.63;;;13.13;;
7306;SDS011;3694;48.732;9.248;2023-05-02T05:48:27;14.13;;;12.73;;
7306;SDS011;3694;48.732;9.248;2023-05-02T05:50:52;12.50;;;11.30;;
7306;SDS011;3694;48.732;9.248;2023-05-02T05:53:19;12.43;;;11.23;;
7306;SDS011;3694;48.732;9.248;2023-05-02T05:55:45;12.80;;;11.40;;
7306;SDS011;3694;48.732;9.248;2023-05-02T05:58:11;13.67;;;12.27;;
7306;SDS011;3694;48.732;9.248;2023-05-02T06:00:37;12.30;;;11.10;;
7306;SDS011;3694;48.732;9.248;2023-05-02T06:03:04;11.73;;;10.63;;
7306;SDS011;3694;48.732;9.248;2023-05-02T06:05:30;13.10;;;11.80;;
7306;SDS011;3694;48.732;9.248;2023-05-02T06:07:56;11.80;;;10.70;;
7306;SDS011;3694;48.732;9.248;2023-05-02T06:10:22;11.53;;;10.33;;
7306;SDS011;3694;48.732;9.248;2023-05-02T06:12:48;11.13;;;10.03;;
7306;SDS011;3694;48.732;9.248;2023-05-02T06:15:13;11.47;;;10.47;;
7306;SDS011;3694;48.732;9.248;2023-05-02T06:17:39;11.07;;;9.97;;
7306;SDS011;3694;48.732;9.248;2023-05-02T06:20:05;10.10;;;9.20;;
7306;SDS011;3694;48.732;9.248;2023-05-02T06:22:34;9.50;;;8.60;;
7306;SDS011;3694;48.732;9.248;2023-05-02T06:25:00;9.27;;;8.47;;
7306;SDS011;3694;48.732;9.248;2023-05-02T06:27:26;9.03;;;8.20;;
7306;SDS011;3694;48.732;9.248;2023-05-02T06:29:51;9.10;;;8.20;;
7306;SDS011;3694;48.732;9.248;2023-05-02T06:32:17;8.80;;;8.00;;
7306;SDS011;3694;48.732;9.248;2023-05-02T06:34:43;9.00;;;8.20;;
7306;SDS011;3694;48.732;9.248;2023-05-02T06:37:09;9.03;;;8.13;;
7306;SDS011;3694;48.732;9.248;2023-05-02T06:39:35;8.50;;;7.60;;
7306;SDS011;3694;48.732;9.248;2023-05-02T06:42:00;10.03;;;9.13;;
7306;SDS011;3694;48.732;9.248;2023-05-02T06:44:26;9.40;;;8.50;;
7306;SDS011;3694;48.732;9.248;2023-05-02T06:46:52;9.53;;;8.63;;
7306;SDS011;3694;48.732;9.248;2023-05-02T06:49:17;9.23;;;8.23;;
7306;SDS011;3694;48.732;9.248;2023-05-02T06:51:43;9.83;;;8.93;;
7306;SDS011;3694;48.732;9.248;2023-05-02T06:54:08;9.50;;;8.60;;
7306;SDS011;3694;48.732;9.248;2023-05-02T06:56:34;10.80;;;9.63;;
7306;SDS011;3694;48.732;9.248;2023-05-02T06:59:00;10.37;;;9.37;;
7306;SDS011;3694;48.732;9.248;2023-05-02T07:01:26;10.50;;;9.60;;
7306;SDS011;3694;48.732;9.248;2023-05-02T07:03:51;11.80;;;10.10;;
7306;SDS011;3694;48.732;9.248;2023-05-02T07:06:18;10.77;;;9.67;;
7306;SDS011;3694;48.732;9.248;2023-05-02T07:08:43;10.57;;;9.67;;
7306;SDS011;3694;48.732;9.248;2023-05-02T07:11:09;12.03;;;10.20;;
7306;SDS011;3694;48.732;9.248;2023-05-02T07:13:34;10.37;;;9.47;;
7306;SDS011;3694;48.732;9.248;2023-05-02T07:16:00;8.80;;;7.87;;
7306;SDS011;3694;48.732;9.248;2023-05-02T07:18:25;11.27;;;9.83;;
7306;SDS011;3694;48.732;9.248;2023-05-02T07:20:51;12.77;;;11.47;;
7306;SDS011;3694;48.732;9.248;2023-05-02T07:23:16;12.13;;;10.97;;
7306;SDS011;3694;48.732;9.248;2023-05-02T07:25:42;12.30;;;11.10;;
7306;SDS011;3694;48.732;9.248;2023-05-02T07:28:07;13.10;;;11.80;;
7306;SDS011;3694;48.732;9.248;2023-05-02T07:30:33;14.03;;;12.63;;
7306;SDS011;3694;48.732;9.248;2023-05-02T07:32:59;12.30;;;11.10;;
7306;SDS011;3694;48.732;9.248;2023-05-02T07:35:24;12.87;;;11.37;;
7306;SDS011;3694;48.732;9.248;2023-05-02T07:37:50;12.57;;;11.30;;
7306;SDS011;3694;48.732;9.248;2023-05-02T07:40:15;12.40;;;11.10;;
7306;SDS011;3694;48.732;9.248;2023-05-02T07:42:42;13.87;;;12.47;;
7306;SDS011;3694;48.732;9.248;2023-05-02T07:45:08;14.10;;;11.87;;
7306;SDS011;3694;48.732;9.248;2023-05-02T07:47:34;14.17;;;12.77;;
7306;SDS011;3694;48.732;9.248;2023-05-02T07:50:00;14.07;;;12.67;;
7306;SDS011;3694;48.732;9.248;2023-05-02T07:52:25;13.47;;;12.17;;
7306;SDS011;3694;48.732;9.248;2023-05-02T07:54:51;13.13;;;11.87;;
7306;SDS011;3694;48.732;9.248;2023-05-02T07:57:17;12.80;;;11.60;;
7306;SDS011;3694;48.732;9.248;2023-05-02T07:59:43;11.70;;;10.60;;
7306;SDS011;3694;48.732;9.248;2023-05-02T08:02:08;13.73;;;12.20;;
7306;SDS011;3694;48.732;9.248;2023-05-02T08:04:37;13.13;;;10.93;;
7306;SDS011;3694;48.732;9.248;2023-05-02T08:07:02;13.63;;;12.43;;
7306;SDS011;3694;48.732;9.248;2023-05-02T08:09:28;12.93;;;11.53;;
7306;SDS011;3694;48.732;9.248;2023-05-02T08:11:53;13.63;;;12.23;;
7306;SDS011;3694;48.732;9.248;2023-05-02T08:14:19;13.03;;;11.60;;
7306;SDS011;3694;48.732;9.248;2023-05-02T08:16:44;13.93;;;12.53;;
7306;SDS011;3694;48.732;9.248;2023-05-02T08:19:10;12.97;;;11.53;;
7306;SDS011;3694;48.732;9.248;2023-05-02T08:21:39;13.63;;;12.33;;
7306;SDS011;3694;48.732;9.248;2023-05-02T08:24:05;15.20;;;12.60;;
7306;SDS011;3694;48.732;9.248;2023-05-02T08:26:30;13.73;;;12.33;;
7306;SDS011;3694;48.732;9.248;2023-05-02T08:28:56;15.47;;;13.87;;
7306;SDS011;3694;48.732;9.248;2023-05-02T08:31:21;13.93;;;12.53;;
7306;SDS011;3694;48.732;9.248;2023-05-02T08:33:47;14.77;;;13.27;;
7306;SDS011;3694;48.732;9.248;2023-05-02T08:36:13;14.67;;;13.17;;
7306;SDS011;3694;48.732;9.248;2023-05-02T08:38:40;13.17;;;11.87;;
7306;SDS011;3694;48.732;9.248;2023-05-02T08:41:13;14.53;;;13.13;;
7306;SDS011;3694;48.732;9.248;2023-05-02T08:43:45;14.00;;;12.60;;
7306;SDS011;3694;48.732;9.248;2023-05-02T08:46:11;14.80;;;13.40;;
7306;SDS011;3694;48.732;9.248;2023-05-02T08:48:39;14.10;;;12.80;;
7306;SDS011;3694;48.732;9.248;2023-05-02T08:51:09;14.50;;;13.10;;
7306;SDS011;3694;48.732;9.248;2023-05-02T08:53:37;14.57;;;12.83;;
7306;SDS011;3694;48.732;9.248;2023-05-02T08:56:08;14.03;;;12.73;;
7306;SDS011;3694;48.732;9.248;2023-05-02T08:58:35;14.63;;;13.23;;
7306;SDS011;3694;48.732;9.248;2023-05-02T09:01:02;13.50;;;12.17;;
7306;SDS011;3694;48.732;9.248;2023-05-02T09:03:34;14.10;;;12.70;;
7306;SDS011;3694;48.732;9.248;2023-05-02T09:08:37;14.00;;;12.70;;
7306;SDS011;3694;48.732;9.248;2023-05-02T09:11:08;13.70;;;12.40;;
7306;SDS011;3694;48.732;9.248;2023-05-02T09:13:38;13.87;;;12.57;;
7306;SDS011;3694;48.732;9.248;2023-05-02T09:16:06;12.93;;;11.67;;
7306;SDS011;3694;48.732;9.248;2023-05-02T09:18:40;13.47;;;12.00;;
7306;SDS011;3694;48.732;9.248;2023-05-02T09:21:08;13.07;;;11.73;;
7306;SDS011;3694;48.732;9.248;2023-05-02T09:23:39;13.07;;;11.87;;
7306;SDS011;3694;48.732;9.248;2023-05-02T09:26:09;12.73;;;11.53;;
7306;SDS011;3694;48.732;9.248;2023-05-02T09:28:46;12.43;;;11.23;;
7306;SDS011;3694;48.732;9.248;2023-05-02T09:31:17;13.20;;;11.90;;
7306;SDS011;3694;48.732;9.248;2023-05-02T09:33:47;12.73;;;11.43;;
7306;SDS011;3694;48.732;9.248;2023-05-02T09:36:17;13.40;;;12.20;;
7306;SDS011;3694;48.732;9.248;2023-05-02T09:38:45;13.80;;;12.43;;
7306;SDS011;3694;48.732;9.248;2023-05-02T09:41:11;12.00;;;10.70;;
7306;SDS011;3694;48.732;9.248;2023-05-02T09:43:37;13.70;;;12.20;;
7306;SDS011;3694;48.732;9.248;2023-05-02T09:46:05;12.67;;;10.90;;
7306;SDS011;3694;48.732;9.248;2023-05-02T09:48:32;12.50;;;11.27;;
7306;SDS011;3694;48.732;9.248;2023-05-02T09:51:18;11.80;;;10.70;;
7306;SDS011;3694;48.732;9.248;2023-05-02T09:53:44;12.53;;;11.20;;
7306;SDS011;3694;48.732;9.248;2023-05-02T09:56:10;11.87;;;10.67;;
7306;SDS011;3694;48.732;9.248;2023-05-02T09:58:36;10.73;;;9.73;;
7306;SDS011;3694;48.732;9.248;2023-05-02T10:01:01;11.47;;;10.27;;
7306;SDS011;3694;48.732;9.248;2023-05-02T10:03:28;11.03;;;9.93;;
7306;SDS011;3694;48.732;9.248;2023-05-02T10:05:55;14.07;;;10.27;;
7306;SDS011;3694;48.732;9.248;2023-05-02T10:08:24;12.63;;;11.43;;
7306;SDS011;3694;48.732;9.248;2023-05-02T10:10:52;12.20;;;11.00;;
7306;SDS011;3694;48.732;9.248;2023-05-02T10:13:20;13.23;;;11.83;;
7306;SDS011;3694;48.732;9.248;2023-05-02T10:15:48;12.67;;;11.47;;
7306;SDS011;3694;48.732;9.248;2023-05-02T10:18:25;13.17;;;11.83;;
7306;SDS011;3694;48.732;9.248;2023-05-02T10:21:06;11.67;;;10.57;;
7306;SDS011;3694;48.732;9.248;2023-05-02T10:23:35;11.80;;;10.57;;
7306;SDS011;3694;48.732;9.248;2023-05-02T10:26:02;12.27;;;11.10;;
7306;SDS011;3694;48.732;9.248;2023-05-02T10:28:28;13.23;;;11.93;;
7306;SDS011;3694;48.732;9.248;2023-05-02T10:30:54;13.47;;;12.07;;
7306;SDS011;3694;48.732;9.248;2023-05-02T10:33:22;13.80;;;12.50;;
7306;SDS011;3694;48.732;9.248;2023-05-02T10:35:48;12.67;;;11.37;;
7306;SDS011;3694;48.732;9.248;2023-05-02T10:38:14;12.13;;;10.90;;
7306;SDS011;3694;48.732;9.248;2023-05-02T10:40:46;13.13;;;11.73;;
7306;SDS011;3694;48.732;9.248;2023-05-02T10:43:20;12.93;;;11.77;;
7306;SDS011;3694;48.732;9.248;2023-05-02T10:45:47;13.37;;;12.07;;
7306;SDS011;3694;48.732;9.248;2023-05-02T10:48:14;12.50;;;11.37;;
7306;SDS011;3694;48.732;9.248;2023-05-02T10:50:44;12.23;;;11.07;;
7306;SDS011;3694;48.732;9.248;2023-05-02T10:53:21;12.10;;;11.00;;
7306;SDS011;3694;48.732;9.248;2023-05-02T10:58:50;11.73;;;10.63;;
7306;SDS011;3694;48.732;9.248;2023-05-02T11:04:00;11.03;;;9.93;;
7306;SDS011;3694;48.732;9.248;2023-05-02T11:06:36;11.53;;;10.33;;
7306;SDS011;3694;48.732;9.248;2023-05-02T11:11:53;12.07;;;10.90;;
7306;SDS011;3694;48.732;9.248;2023-05-02T11:24:46;10.87;;;9.77;;
7306;SDS011;3694;48.732;9.248;2023-05-02T11:30:09;11.60;;;10.40;;
7306;SDS011;3694;48.732;9.248;2023-05-02T11:35:16;12.03;;;10.83;;
7306;SDS011;3694;48.732;9.248;2023-05-02T11:40:27;13.20;;;12.00;;
7306;SDS011;3694;48.732;9.248;2023-05-02T11:42:53;12.27;;;11.03;;
7306;SDS011;3694;48.732;9.248;2023-05-02T11:45:20;12.33;;;11.07;;
7306;SDS011;3694;48.732;9.248;2023-05-02T11:47:47;11.67;;;10.57;;
7306;SDS011;3694;48.732;9.248;2023-05-02T11:50:14;12.27;;;11.07;;
7306;SDS011;3694;48.732;9.248;2023-05-02T11:52:43;10.80;;;9.70;;
7306;SDS011;3694;48.732;9.248;2023-05-02T11:55:10;11.33;;;10.07;;
7306;SDS011;3694;48.732;9.248;2023-05-02T11:57:37;11.13;;;10.03;;
7306;SDS011;3694;48.732;9.248;2023-05-02T12:00:04;10.10;;;9.10;;
7306;SDS011;3694;48.732;9.248;2023-05-02T12:02:37;12.07;;;9.23;;
7306;SDS011;3694;48.732;9.248;2023-05-02T12:05:04;10.67;;;9.63;;
7306;SDS011;3694;48.732;9.248;2023-05-02T12:10:01;10.57;;;9.57;;
7306;SDS011;3694;48.732;9.248;2023-05-02T12:12:27;10.37;;;9.37;;
7306;SDS011;3694;48.732;9.248;2023-05-02T12:14:53;8.80;;;8.00;;
7306;SDS011;3694;48.732;9.248;2023-05-02T12:17:18;10.50;;;9.57;;
7306;SDS011;3694;48.732;9.248;2023-05-02T12:19:45;12.53;;;10.97;;
7306;SDS011;3694;48.732;9.248;2023-05-02T12:22:12;11.07;;;9.97;;
7306;SDS011;3694;48.732;9.248;2023-05-02T12:24:38;10.90;;;9.80;;
7306;SDS011;3694;48.732;9.248;2023-05-02T12:27:14;12.70;;;11.40;;
7306;SDS011;3694;48.732;9.248;2023-05-02T12:29:41;13.47;;;12.13;;
7306;SDS011;3694;48.732;9.248;2023-05-02T12:32:12;12.57;;;11.27;;
7306;SDS011;3694;48.732;9.248;2023-05-02T12:34:39;11.17;;;10.07;;
7306;SDS011;3694;48.732;9.248;2023-05-02T12:37:05;11.87;;;10.00;;
7306;SDS011;3694;48.732;9.248;2023-05-02T12:39:38;11.57;;;10.43;;
7306;SDS011;3694;48.732;9.248;2023-05-02T12:42:11;11.10;;;10.00;;
7306;SDS011;3694;48.732;9.248;2023-05-02T12:44:38;12.57;;;11.37;;
7306;SDS011;3694;48.732;9.248;2023-05-02T12:47:06;13.33;;;11.87;;
7306;SDS011;3694;48.732;9.248;2023-05-02T12:49:32;12.30;;;11.17;;
7306;SDS011;3694;48.732;9.248;2023-05-02T12:52:12;13.20;;;11.80;;
7306;SDS011;3694;48.732;9.248;2023-05-02T12:54:37;13.20;;;11.90;;
7306;SDS011;3694;48.732;9.248;2023-05-02T12:57:03;14.47;;;13.07;;
7306;SDS011;3694;48.732;9.248;2023-05-02T12:59:30;14.33;;;12.90;;
7306;SDS011;3694;48.732;9.248;2023-05-02T13:01:56;14.80;;;13.23;;
7306;SDS011;3694;48.732;9.248;2023-05-02T13:04:35;15.87;;;14.23;;
7306;SDS011;3694;48.732;9.248;2023-05-02T13:07:02;15.63;;;13.93;;
7306;SDS011;3694;48.732;9.248;2023-05-02T13:09:28;17.73;;;15.67;;
7306;SDS011;3694;48.732;9.248;2023-05-02T13:11:53;17.20;;;14.47;;
7306;SDS011;3694;48.732;9.248;2023-05-02T13:14:19;17.00;;;13.80;;
7306;SDS011;3694;48.732;9.248;2023-05-02T13:16:45;15.90;;;12.03;;
7306;SDS011;3694;48.732;9.248;2023-05-02T13:19:10;14.93;;;13.07;;
7306;SDS011;3694;48.732;9.248;2023-05-02T13:21:36;14.77;;;13.27;;
7306;SDS011;3694;48.732;9.248;2023-05-02T13:24:01;17.73;;;14.40;;
7306;SDS011;3694;48.732;9.248;2023-05-02T13:26:28;13.03;;;11.63;;
7306;SDS011;3694;48.732;9.248;2023-05-02T13:28:54;15.10;;;13.50;;
7306;SDS011;3694;48.732;9.248;2023-05-02T13:31:20;14.50;;;12.50;;
7306;SDS011;3694;48.732;9.248;2023-05-02T13:33:46;15.07;;;13.33;;
7306;SDS011;3694;48.732;9.248;2023-05-02T13:36:11;16.13;;;13.60;;
7306;SDS011;3694;48.732;9.248;2023-05-02T13:38:37;18.90;;;14.80;;
7306;SDS011;3694;48.732;9.248;2023-05-02T13:41:03;14.43;;;12.93;;
7306;SDS011;3694;48.732;9.248;2023-05-02T13:43:29;14.77;;;13.27;;
7306;SDS011;3694;48.732;9.248;2023-05-02T13:45:54;12.90;;;11.50;;
7306;SDS011;3694;48.732;9.248;2023-05-02T13:48:20;12.73;;;10.97;;
7306;SDS011;3694;48.732;9.248;2023-05-02T13:50:45;13.23;;;11.07;;
7306;SDS011;3694;48.732;9.248;2023-05-02T13:53:11;14.00;;;12.07;;
7306;SDS011;3694;48.732;9.248;2023-05-02T13:55:36;13.83;;;11.73;;
7306;SDS011;3694;48.732;9.248;2023-05-02T13:58:02;13.13;;;11.77;;
7306;SDS011;3694;48.732;9.248;2023-05-02T14:00:28;12.13;;;10.83;;
7306;SDS011;3694;48.732;9.248;2023-05-02T14:02:54;13.83;;;12.30;;
7306;SDS011;3694;48.732;9.248;2023-05-02T14:05:19;13.43;;;11.50;;
7306;SDS011;3694;48.732;9.248;2023-05-02T14:07:45;13.73;;;12.33;;
7306;SDS011;3694;48.732;9.248;2023-05-02T14:10:11;12.73;;;11.43;;
7306;SDS011;3694;48.732;9.248;2023-05-02T14:12:36;11.93;;;10.63;;
7306;SDS011;3694;48.732;9.248;2023-05-02T14:15:02;11.15;;;10.05;;
7306;SDS011;3694;48.732;9.248;2023-05-02T14:17:27;9.40;;;8.50;;
7306;SDS011;3694;48.732;9.248;2023-05-02T14:19:53;8.90;;;8.10;;
7306;SDS011;3694;48.732;9.248;2023-05-02T14:22:19;9.30;;;8.43;;
7306;SDS011;3694;48.732;9.248;2023-05-02T14:24:44;9.93;;;8.90;;
7306;SDS011;3694;48.732;9.248;2023-05-02T14:27:10;10.50;;;9.40;;
7306;SDS011;3694;48.732;9.248;2023-05-02T14:29:41;10.67;;;9.57;;
7306;SDS011;3694;48.732;9.248;2023-05-02T14:32:07;10.07;;;9.07;;
7306;SDS011;3694;48.732;9.248;2023-05-02T14:34:33;10.50;;;9.40;;
7306;SDS011;3694;48.732;9.248;2023-05-02T14:36:59;9.50;;;8.57;;
7306;SDS011;3694;48.732;9.248;2023-05-02T14:39:25;11.27;;;9.67;;
7306;SDS011;3694;48.732;9.248;2023-05-02T14:41:51;11.13;;;9.67;;
7306;SDS011;3694;48.732;9.248;2023-05-02T14:44:17;10.27;;;9.23;;
7306;SDS011;3694;48.732;9.248;2023-05-02T14:46:42;11.17;;;10.00;;
7306;SDS011;3694;48.732;9.248;2023-05-02T14:49:08;11.97;;;9.47;;
7306;SDS011;3694;48.732;9.248;2023-05-02T14:51:36;10.10;;;8.87;;
7306;SDS011;3694;48.732;9.248;2023-05-02T14:54:02;8.80;;;7.90;;
7306;SDS011;3694;48.732;9.248;2023-05-02T14:56:28;8.00;;;7.00;;
7306;SDS011;3694;48.732;9.248;2023-05-02T14:58:54;7.63;;;6.93;;
7306;SDS011;3694;48.732;9.248;2023-05-02T15:01:20;7.93;;;7.07;;
7306;SDS011;3694;48.732;9.248;2023-05-02T15:03:46;8.37;;;7.40;;
7306;SDS011;3694;48.732;9.248;2023-05-02T15:06:13;7.37;;;6.63;;
7306;SDS011;3694;48.732;9.248;2023-05-02T15:08:40;9.23;;;6.93;;
7306;SDS011;3694;48.732;9.248;2023-05-02T15:11:06;7.60;;;6.90;;
7306;SDS011;3694;48.732;9.248;2023-05-02T15:13:35;6.60;;;5.90;;
7306;SDS011;3694;48.732;9.248;2023-05-02T15:16:01;6.73;;;5.80;;
7306;SDS011;3694;48.732;9.248;2023-05-02T15:18:27;6.73;;;6.03;;
7306;SDS011;3694;48.732;9.248;2023-05-02T15:20:53;6.90;;;6.20;;
7306;SDS011;3694;48.732;9.248;2023-05-02T15:23:18;6.70;;;6.00;;
7306;SDS011;3694;48.732;9.248;2023-05-02T15:25:44;6.70;;;6.00;;
7306;SDS011;3694;48.732;9.248;2023-05-02T15:28:09;7.40;;;6.60;;
7306;SDS011;3694;48.732;9.248;2023-05-02T15:30:35;5.77;;;5.23;;
7306;SDS011;3694;48.732;9.248;2023-05-02T15:33:01;7.83;;;7.00;;